sensor_id;sensor_type;location;lat;lon;timestamp;temperature;humidity
33903;DHT22;20194;50.950;5.346;2023-05-17T00:02:12;11.70;41.30
33903;DHT22;20194;50.950;5.346;2023-05-17T00:04:38;11.70;39.30
33903;DHT22;20194;50.950;5.346;2023-05-17T00:07:03;11.70;41.50
33903;DHT22;20194;50.950;5.346;2023-05-17T00:09:29;11.50;43.50
33903;DHT22;20194;50.950;5.346;2023-05-17T00:11:55;11.50;43.10
33903;DHT22;20194;50.950;5.346;2023-05-17T00:14:21;11.50;42.50
33903;DHT22;20194;50.950;5.346;2023-05-17T00:16:47;11.50;42.60
33903;DHT22;20194;50.950;5.346;2023-05-17T00:19:12;11.50;43.50
33903;DHT22;20194;50.950;5.346;2023-05-17T00:21:38;11.60;42.60
33903;DHT22;20194;50.950;5.346;2023-05-17T00:24:04;11.60;38.20
33903;DHT22;20194;50.950;5.346;2023-05-17T00:26:30;11.60;39.60
33903;DHT22;20194;50.950;5.346;2023-05-17T00:28:55;11.60;38.70
33903;DHT22;20194;50.950;5.346;2023-05-17T00:31:21;11.60;38.50
33903;DHT22;20194;50.950;5.346;2023-05-17T00:33:46;11.50;37.30
33903;DHT22;20194;50.950;5.346;2023-05-17T00:36:12;11.60;38.20
33903;DHT22;20194;50.950;5.346;2023-05-17T00:38:38;11.60;36.90
33903;DHT22;20194;50.950;5.346;2023-05-17T00:41:04;11.60;37.90
33903;DHT22;20194;50.950;5.346;2023-05-17T00:43:29;11.50;37.90
33903;DHT22;20194;50.950;5.346;2023-05-17T00:45:55;11.40;41.10
33903;DHT22;20194;50.950;5.346;2023-05-17T00:48:21;11.40;39.20
33903;DHT22;20194;50.950;5.346;2023-05-17T00:50:53;11.40;37.70
33903;DHT22;20194;50.950;5.346;2023-05-17T00:53:19;11.40;38.60
33903;DHT22;20194;50.950;5.346;2023-05-17T00:55:45;11.40;37.10
33903;DHT22;20194;50.950;5.346;2023-05-17T00:58:12;11.40;36.90
33903;DHT22;20194;50.950;5.346;2023-05-17T01:00:38;11.40;36.90
33903;DHT22;20194;50.950;5.346;2023-05-17T01:03:04;11.50;35.80
33903;DHT22;20194;50.950;5.346;2023-05-17T01:05:30;11.40;35.20
33903;DHT22;20194;50.950;5.346;2023-05-17T01:07:56;11.30;37.20
33903;DHT22;20194;50.950;5.346;2023-05-17T01:10:47;11.20;37.20
33903;DHT22;20194;50.950;5.346;2023-05-17T01:13:22;11.10;40.30
33903;DHT22;20194;50.950;5.346;2023-05-17T01:16:00;11.30;37.50
33903;DHT22;20194;50.950;5.346;2023-05-17T01:18:44;11.20;38.10
33903;DHT22;20194;50.950;5.346;2023-05-17T01:21:51;11.20;37.80
33903;DHT22;20194;50.950;5.346;2023-05-17T01:24:31;11.20;36.30
33903;DHT22;20194;50.950;5.346;2023-05-17T01:26:58;11.10;37.00
33903;DHT22;20194;50.950;5.346;2023-05-17T01:29:27;11.20;35.60
33903;DHT22;20194;50.950;5.346;2023-05-17T01:31:53;11.10;37.10
33903;DHT22;20194;50.950;5.346;2023-05-17T01:34:29;11.20;36.00
33903;DHT22;20194;50.950;5.346;2023-05-17T01:36:55;11.20;35.80
33903;DHT22;20194;50.950;5.346;2023-05-17T01:39:22;11.20;35.80
33903;DHT22;20194;50.950;5.346;2023-05-17T01:41:59;11.10;36.60
33903;DHT22;20194;50.950;5.346;2023-05-17T01:50:09;11.10;37.50
33903;DHT22;20194;50.950;5.346;2023-05-17T01:52:52;11.00;35.70
33903;DHT22;20194;50.950;5.346;2023-05-17T01:57:52;11.00;35.60
33903;DHT22;20194;50.950;5.346;2023-05-17T02:00:18;10.90;37.90
33903;DHT22;20194;50.950;5.346;2023-05-17T02:02:46;10.80;37.40
33903;DHT22;20194;50.950;5.346;2023-05-17T02:05:11;10.90;36.40
33903;DHT22;20194;50.950;5.346;2023-05-17T02:07:37;10.90;34.30
33903;DHT22;20194;50.950;5.346;2023-05-17T02:10:04;10.80;36.30
33903;DHT22;20194;50.950;5.346;2023-05-17T02:12:30;10.90;34.70
33903;DHT22;20194;50.950;5.346;2023-05-17T02:14:56;10.90;36.00
33903;DHT22;20194;50.950;5.346;2023-05-17T02:17:22;10.90;36.20
33903;DHT22;20194;50.950;5.346;2023-05-17T02:19:47;10.90;36.00
33903;DHT22;20194;50.950;5.346;2023-05-17T02:22:13;11.00;35.30
33903;DHT22;20194;50.950;5.346;2023-05-17T02:24:39;11.00;36.00
33903;DHT22;20194;50.950;5.346;2023-05-17T02:27:05;11.00;34.80
33903;DHT22;20194;50.950;5.346;2023-05-17T02:29:31;10.90;37.10
33903;DHT22;20194;50.950;5.346;2023-05-17T02:31:57;10.90;34.20
33903;DHT22;20194;50.950;5.346;2023-05-17T02:34:23;10.80;34.60
33903;DHT22;20194;50.950;5.346;2023-05-17T02:36:48;10.80;36.90
33903;DHT22;20194;50.950;5.346;2023-05-17T02:39:14;10.90;35.20
33903;DHT22;20194;50.950;5.346;2023-05-17T02:41:40;10.80;33.70
33903;DHT22;20194;50.950;5.346;2023-05-17T02:44:06;10.80;34.40
33903;DHT22;20194;50.950;5.346;2023-05-17T02:46:31;10.60;38.40
33903;DHT22;20194;50.950;5.346;2023-05-17T02:48:57;10.50;42.50
33903;DHT22;20194;50.950;5.346;2023-05-17T02:51:23;10.70;40.70
33903;DHT22;20194;50.950;5.346;2023-05-17T02:53:49;10.50;39.80
33903;DHT22;20194;50.950;5.346;2023-05-17T02:56:15;10.70;39.20
33903;DHT22;20194;50.950;5.346;2023-05-17T02:58:41;10.70;37.50
33903;DHT22;20194;50.950;5.346;2023-05-17T03:01:06;10.70;35.30
33903;DHT22;20194;50.950;5.346;2023-05-17T03:03:32;10.60;38.30
33903;DHT22;20194;50.950;5.346;2023-05-17T03:06:01;10.60;38.40
33903;DHT22;20194;50.950;5.346;2023-05-17T03:08:27;10.60;39.50
33903;DHT22;20194;50.950;5.346;2023-05-17T03:10:52;10.50;38.90
33903;DHT22;20194;50.950;5.346;2023-05-17T03:13:18;10.50;39.00
33903;DHT22;20194;50.950;5.346;2023-05-17T03:15:44;10.50;38.70
33903;DHT22;20194;50.950;5.346;2023-05-17T03:18:10;10.50;38.00
33903;DHT22;20194;50.950;5.346;2023-05-17T03:20:35;10.50;37.10
33903;DHT22;20194;50.950;5.346;2023-05-17T03:23:01;10.40;38.00
33903;DHT22;20194;50.950;5.346;2023-05-17T03:25:27;10.50;37.50
33903;DHT22;20194;50.950;5.346;2023-05-17T03:27:52;10.40;38.10
33903;DHT22;20194;50.950;5.346;2023-05-17T03:30:18;10.40;38.00
33903;DHT22;20194;50.950;5.346;2023-05-17T03:32:44;10.20;39.40
33903;DHT22;20194;50.950;5.346;2023-05-17T03:35:10;10.20;41.90
33903;DHT22;20194;50.950;5.346;2023-05-17T03:37:36;10.20;39.70
33903;DHT22;20194;50.950;5.346;2023-05-17T03:40:02;10.20;39.80
33903;DHT22;20194;50.950;5.346;2023-05-17T03:42:28;10.30;40.30
33903;DHT22;20194;50.950;5.346;2023-05-17T03:44:53;10.40;38.80
33903;DHT22;20194;50.950;5.346;2023-05-17T03:47:19;10.30;38.70
33903;DHT22;20194;50.950;5.346;2023-05-17T03:49:48;10.30;39.60
33903;DHT22;20194;50.950;5.346;2023-05-17T03:52:14;10.30;38.30
33903;DHT22;20194;50.950;5.346;2023-05-17T03:54:39;10.30;38.70
33903;DHT22;20194;50.950;5.346;2023-05-17T03:57:05;10.30;39.80
33903;DHT22;20194;50.950;5.346;2023-05-17T03:59:31;10.30;38.90
33903;DHT22;20194;50.950;5.346;2023-05-17T04:01:56;10.30;40.30
33903;DHT22;20194;50.950;5.346;2023-05-17T04:04:22;10.30;41.10
33903;DHT22;20194;50.950;5.346;2023-05-17T04:06:48;10.30;42.10
33903;DHT22;20194;50.950;5.346;2023-05-17T04:09:13;10.30;44.90
33903;DHT22;20194;50.950;5.346;2023-05-17T04:11:40;10.30;45.60
33903;DHT22;20194;50.950;5.346;2023-05-17T04:14:07;10.30;46.00
33903;DHT22;20194;50.950;5.346;2023-05-17T04:16:33;10.40;45.90
33903;DHT22;20194;50.950;5.346;2023-05-17T04:18:59;10.30;46.20
33903;DHT22;20194;50.950;5.346;2023-05-17T04:21:25;10.20;46.70
33903;DHT22;20194;50.950;5.346;2023-05-17T04:23:51;10.20;50.80
33903;DHT22;20194;50.950;5.346;2023-05-17T04:26:17;10.30;49.40
33903;DHT22;20194;50.950;5.346;2023-05-17T04:28:43;10.30;49.00
33903;DHT22;20194;50.950;5.346;2023-05-17T04:31:09;10.30;49.60
33903;DHT22;20194;50.950;5.346;2023-05-17T04:33:35;10.50;50.70
33903;DHT22;20194;50.950;5.346;2023-05-17T04:36:02;10.40;51.80
33903;DHT22;20194;50.950;5.346;2023-05-17T04:38:28;10.50;52.30
33903;DHT22;20194;50.950;5.346;2023-05-17T04:41:00;10.60;52.70
33903;DHT22;20194;50.950;5.346;2023-05-17T04:43:26;10.40;55.40
33903;DHT22;20194;50.950;5.346;2023-05-17T04:45:56;10.50;55.00
33903;DHT22;20194;50.950;5.346;2023-05-17T04:48:22;10.20;57.60
33903;DHT22;20194;50.950;5.346;2023-05-17T04:50:48;10.00;62.60
33903;DHT22;20194;50.950;5.346;2023-05-17T04:53:14;10.00;62.50
33903;DHT22;20194;50.950;5.346;2023-05-17T04:55:40;9.90;64.00
33903;DHT22;20194;50.950;5.346;2023-05-17T04:58:06;10.00;66.40
33903;DHT22;20194;50.950;5.346;2023-05-17T05:00:31;10.20;65.20
33903;DHT22;20194;50.950;5.346;2023-05-17T05:02:57;10.40;63.30
33903;DHT22;20194;50.950;5.346;2023-05-17T05:05:23;10.60;62.00
33903;DHT22;20194;50.950;5.346;2023-05-17T05:07:50;10.60;60.20
33903;DHT22;20194;50.950;5.346;2023-05-17T05:10:15;10.40;64.10
33903;DHT22;20194;50.950;5.346;2023-05-17T05:12:41;10.40;64.30
33903;DHT22;20194;50.950;5.346;2023-05-17T05:15:07;10.60;62.80
33903;DHT22;20194;50.950;5.346;2023-05-17T05:17:33;10.60;62.00
33903;DHT22;20194;50.950;5.346;2023-05-17T05:19:59;10.60;61.20
33903;DHT22;20194;50.950;5.346;2023-05-17T05:22:25;10.50;61.60
33903;DHT22;20194;50.950;5.346;2023-05-17T05:24:51;10.30;63.10
33903;DHT22;20194;50.950;5.346;2023-05-17T05:27:16;10.40;64.90
33903;DHT22;20194;50.950;5.346;2023-05-17T05:29:42;10.50;65.00
33903;DHT22;20194;50.950;5.346;2023-05-17T05:32:08;10.60;64.00
33903;DHT22;20194;50.950;5.346;2023-05-17T05:34:34;10.40;66.00
33903;DHT22;20194;50.950;5.346;2023-05-17T05:37:00;10.30;65.90
33903;DHT22;20194;50.950;5.346;2023-05-17T05:39:25;10.40;67.70
33903;DHT22;20194;50.950;5.346;2023-05-17T05:41:52;10.40;66.50
33903;DHT22;20194;50.950;5.346;2023-05-17T05:44:18;10.60;64.90
33903;DHT22;20194;50.950;5.346;2023-05-17T05:46:43;10.90;64.20
33903;DHT22;20194;50.950;5.346;2023-05-17T05:49:09;10.80;63.10
33903;DHT22;20194;50.950;5.346;2023-05-17T05:51:35;11.00;64.20
33903;DHT22;20194;50.950;5.346;2023-05-17T05:54:00;10.80;65.70
33903;DHT22;20194;50.950;5.346;2023-05-17T05:56:26;10.80;67.40
33903;DHT22;20194;50.950;5.346;2023-05-17T05:58:56;10.90;67.20
33903;DHT22;20194;50.950;5.346;2023-05-17T06:01:22;10.80;71.00
33903;DHT22;20194;50.950;5.346;2023-05-17T06:03:49;10.80;69.80
33903;DHT22;20194;50.950;5.346;2023-05-17T06:06:15;11.10;68.40
33903;DHT22;20194;50.950;5.346;2023-05-17T06:08:44;11.30;66.90
33903;DHT22;20194;50.950;5.346;2023-05-17T06:11:14;11.50;65.40
33903;DHT22;20194;50.950;5.346;2023-05-17T06:13:41;11.60;65.80
33903;DHT22;20194;50.950;5.346;2023-05-17T06:16:06;11.60;68.70
33903;DHT22;20194;50.950;5.346;2023-05-17T06:18:32;11.90;67.40
33903;DHT22;20194;50.950;5.346;2023-05-17T06:20:58;12.20;64.90
33903;DHT22;20194;50.950;5.346;2023-05-17T06:23:24;12.00;63.60
33903;DHT22;20194;50.950;5.346;2023-05-17T06:25:50;12.20;64.40
33903;DHT22;20194;50.950;5.346;2023-05-17T06:28:16;12.40;59.90
33903;DHT22;20194;50.950;5.346;2023-05-17T06:30:42;12.50;58.80
33903;DHT22;20194;50.950;5.346;2023-05-17T06:33:08;12.70;60.70
33903;DHT22;20194;50.950;5.346;2023-05-17T06:35:34;12.90;56.60
33903;DHT22;20194;50.950;5.346;2023-05-17T06:38:00;13.20;55.20
33903;DHT22;20194;50.950;5.346;2023-05-17T06:40:26;13.10;54.60
33903;DHT22;20194;50.950;5.346;2023-05-17T06:42:52;13.30;54.90
33903;DHT22;20194;50.950;5.346;2023-05-17T06:45:18;13.40;52.50
33903;DHT22;20194;50.950;5.346;2023-05-17T06:47:43;13.40;54.20
33903;DHT22;20194;50.950;5.346;2023-05-17T06:50:09;13.60;54.00
33903;DHT22;20194;50.950;5.346;2023-05-17T06:52:35;13.90;50.40
33903;DHT22;20194;50.950;5.346;2023-05-17T06:55:02;13.90;50.90
33903;DHT22;20194;50.950;5.346;2023-05-17T06:57:27;14.20;52.00
33903;DHT22;20194;50.950;5.346;2023-05-17T06:59:53;14.60;48.20
33903;DHT22;20194;50.950;5.346;2023-05-17T07:02:19;14.70;45.30
33903;DHT22;20194;50.950;5.346;2023-05-17T07:04:45;14.90;43.20
33903;DHT22;20194;50.950;5.346;2023-05-17T07:07:10;15.00;41.60
33903;DHT22;20194;50.950;5.346;2023-05-17T07:09:36;15.10;40.70
33903;DHT22;20194;50.950;5.346;2023-05-17T07:12:04;15.20;38.70
33903;DHT22;20194;50.950;5.346;2023-05-17T07:14:30;15.20;38.60
33903;DHT22;20194;50.950;5.346;2023-05-17T07:16:56;15.10;39.20
33903;DHT22;20194;50.950;5.346;2023-05-17T07:19:22;14.90;40.50
33903;DHT22;20194;50.950;5.346;2023-05-17T07:21:48;15.20;40.00
33903;DHT22;20194;50.950;5.346;2023-05-17T07:24:13;15.30;35.80
33903;DHT22;20194;50.950;5.346;2023-05-17T07:26:39;15.10;37.80
33903;DHT22;20194;50.950;5.346;2023-05-17T07:29:05;15.50;35.80
33903;DHT22;20194;50.950;5.346;2023-05-17T07:31:30;15.70;30.10
33903;DHT22;20194;50.950;5.346;2023-05-17T07:33:57;15.70;26.90
33903;DHT22;20194;50.950;5.346;2023-05-17T07:36:22;15.70;26.90
33903;DHT22;20194;50.950;5.346;2023-05-17T07:38:48;15.20;25.70
33903;DHT22;20194;50.950;5.346;2023-05-17T07:41:14;15.10;30.70
33903;DHT22;20194;50.950;5.346;2023-05-17T07:43:41;15.20;29.00
33903;DHT22;20194;50.950;5.346;2023-05-17T07:46:07;15.20;25.10
33903;DHT22;20194;50.950;5.346;2023-05-17T07:48:33;15.20;23.90
33903;DHT22;20194;50.950;5.346;2023-05-17T07:50:59;15.40;21.10
33903;DHT22;20194;50.950;5.346;2023-05-17T07:53:24;15.80;18.80
33903;DHT22;20194;50.950;5.346;2023-05-17T07:55:50;16.10;14.70
33903;DHT22;20194;50.950;5.346;2023-05-17T07:58:16;16.00;4.10
33903;DHT22;20194;50.950;5.346;2023-05-17T08:00:42;16.10;1.10
33903;DHT22;20194;50.950;5.346;2023-05-17T08:03:07;16.40;2.70
33903;DHT22;20194;50.950;5.346;2023-05-17T08:05:33;16.80;1.00
33903;DHT22;20194;50.950;5.346;2023-05-17T08:07:59;17.00;1.00
33903;DHT22;20194;50.950;5.346;2023-05-17T08:10:28;17.10;1.00
33903;DHT22;20194;50.950;5.346;2023-05-17T08:12:54;17.10;1.00
33903;DHT22;20194;50.950;5.346;2023-05-17T08:15:20;17.10;1.00
33903;DHT22;20194;50.950;5.346;2023-05-17T08:17:46;17.00;1.00
33903;DHT22;20194;50.950;5.346;2023-05-17T08:20:12;17.00;1.00
33903;DHT22;20194;50.950;5.346;2023-05-17T08:22:38;17.00;1.00
33903;DHT22;20194;50.950;5.346;2023-05-17T08:25:05;17.10;1.00
33903;DHT22;20194;50.950;5.346;2023-05-17T08:27:30;17.20;1.00
33903;DHT22;20194;50.950;5.346;2023-05-17T08:29:56;17.30;1.00
33903;DHT22;20194;50.950;5.346;2023-05-17T08:32:23;17.50;1.00
33903;DHT22;20194;50.950;5.346;2023-05-17T08:34:49;17.70;1.00
33903;DHT22;20194;50.950;5.346;2023-05-17T08:37:15;17.40;1.00
33903;DHT22;20194;50.950;5.346;2023-05-17T08:39:40;16.80;1.00
33903;DHT22;20194;50.950;5.346;2023-05-17T08:42:07;16.70;1.00
33903;DHT22;20194;50.950;5.346;2023-05-17T08:44:33;16.90;1.00
33903;DHT22;20194;50.950;5.346;2023-05-17T08:46:59;16.90;1.00
33903;DHT22;20194;50.950;5.346;2023-05-17T08:49:27;17.20;1.00
33903;DHT22;20194;50.950;5.346;2023-05-17T08:51:56;17.50;1.00
33903;DHT22;20194;50.950;5.346;2023-05-17T08:54:24;17.80;1.00
33903;DHT22;20194;50.950;5.346;2023-05-17T08:56:53;18.20;1.00
33903;DHT22;20194;50.950;5.346;2023-05-17T08:59:19;18.50;1.00
33903;DHT22;20194;50.950;5.346;2023-05-17T09:01:47;18.60;1.00
33903;DHT22;20194;50.950;5.346;2023-05-17T09:04:15;18.70;99.90
33903;DHT22;20194;50.950;5.346;2023-05-17T09:06:41;18.60;1.00
33903;DHT22;20194;50.950;5.346;2023-05-17T09:09:09;18.20;1.00
33903;DHT22;20194;50.950;5.346;2023-05-17T09:11:34;18.10;1.00
33903;DHT22;20194;50.950;5.346;2023-05-17T09:14:02;18.00;1.00
33903;DHT22;20194;50.950;5.346;2023-05-17T09:16:29;18.20;1.00
33903;DHT22;20194;50.950;5.346;2023-05-17T09:18:56;18.30;99.90
33903;DHT22;20194;50.950;5.346;2023-05-17T09:21:23;18.20;99.90
33903;DHT22;20194;50.950;5.346;2023-05-17T09:23:50;18.00;99.90
33903;DHT22;20194;50.950;5.346;2023-05-17T09:26:16;17.60;99.90
33903;DHT22;20194;50.950;5.346;2023-05-17T09:28:43;17.80;1.00
33903;DHT22;20194;50.950;5.346;2023-05-17T09:31:10;18.10;1.00
33903;DHT22;20194;50.950;5.346;2023-05-17T09:33:47;18.30;1.00
33903;DHT22;20194;50.950;5.346;2023-05-17T09:36:21;18.30;99.90
33903;DHT22;20194;50.950;5.346;2023-05-17T09:41:18;18.80;99.90
33903;DHT22;20194;50.950;5.346;2023-05-17T09:43:44;19.00;1.00
33903;DHT22;20194;50.950;5.346;2023-05-17T09:46:10;19.20;99.90
33903;DHT22;20194;50.950;5.346;2023-05-17T09:48:37;18.90;1.00
33903;DHT22;20194;50.950;5.346;2023-05-17T09:51:05;18.60;99.90
33903;DHT22;20194;50.950;5.346;2023-05-17T09:53:32;18.10;99.90
33903;DHT22;20194;50.950;5.346;2023-05-17T09:56:05;18.20;99.90
33903;DHT22;20194;50.950;5.346;2023-05-17T09:58:32;18.20;99.90
33903;DHT22;20194;50.950;5.346;2023-05-17T10:01:00;18.40;99.90
33903;DHT22;20194;50.950;5.346;2023-05-17T10:03:30;18.50;4.30
33903;DHT22;20194;50.950;5.346;2023-05-17T10:05:58;18.70;1.00
33903;DHT22;20194;50.950;5.346;2023-05-17T10:08:25;19.00;99.90
33903;DHT22;20194;50.950;5.346;2023-05-17T10:11:02;19.20;1.00
33903;DHT22;20194;50.950;5.346;2023-05-17T10:13:34;19.40;99.90
33903;DHT22;20194;50.950;5.346;2023-05-17T10:16:01;19.10;1.00
33903;DHT22;20194;50.950;5.346;2023-05-17T10:18:27;19.00;1.00
33903;DHT22;20194;50.950;5.346;2023-05-17T10:20:54;19.10;99.90
33903;DHT22;20194;50.950;5.346;2023-05-17T10:23:20;19.40;1.00
33903;DHT22;20194;50.950;5.346;2023-05-17T10:25:46;19.40;95.80
33903;DHT22;20194;50.950;5.346;2023-05-17T10:28:16;19.50;99.90
33903;DHT22;20194;50.950;5.346;2023-05-17T10:30:42;19.30;1.00
33903;DHT22;20194;50.950;5.346;2023-05-17T10:33:10;19.40;99.90
33903;DHT22;20194;50.950;5.346;2023-05-17T10:35:37;19.80;99.90
33903;DHT22;20194;50.950;5.346;2023-05-17T10:38:03;20.00;1.00
33903;DHT22;20194;50.950;5.346;2023-05-17T10:40:29;19.80;99.90
33903;DHT22;20194;50.950;5.346;2023-05-17T10:42:56;20.10;99.90
33903;DHT22;20194;50.950;5.346;2023-05-17T10:45:24;20.00;31.00
33903;DHT22;20194;50.950;5.346;2023-05-17T10:47:51;20.00;99.90
33903;DHT22;20194;50.950;5.346;2023-05-17T10:50:23;20.00;1.00
33903;DHT22;20194;50.950;5.346;2023-05-17T10:52:50;20.30;1.00
33903;DHT22;20194;50.950;5.346;2023-05-17T10:55:20;20.40;99.90
33903;DHT22;20194;50.950;5.346;2023-05-17T11:00:50;20.50;1.00
33903;DHT22;20194;50.950;5.346;2023-05-17T11:03:20;20.70;36.90
33903;DHT22;20194;50.950;5.346;2023-05-17T11:06:16;20.10;1.00
33903;DHT22;20194;50.950;5.346;2023-05-17T11:08:44;20.40;99.90
33903;DHT22;20194;50.950;5.346;2023-05-17T11:11:18;20.40;1.00
33903;DHT22;20194;50.950;5.346;2023-05-17T11:13:53;20.50;85.80
33903;DHT22;20194;50.950;5.346;2023-05-17T11:16:21;20.10;99.90
33903;DHT22;20194;50.950;5.346;2023-05-17T11:18:52;19.40;1.00
33903;DHT22;20194;50.950;5.346;2023-05-17T11:21:20;19.40;1.00
33903;DHT22;20194;50.950;5.346;2023-05-17T11:23:47;19.70;21.30
33903;DHT22;20194;50.950;5.346;2023-05-17T11:26:28;20.00;1.00
33903;DHT22;20194;50.950;5.346;2023-05-17T11:29:04;19.90;99.90
33903;DHT22;20194;50.950;5.346;2023-05-17T11:31:31;20.00;99.90
33903;DHT22;20194;50.950;5.346;2023-05-17T11:33:58;19.90;99.90
33903;DHT22;20194;50.950;5.346;2023-05-17T11:36:25;20.00;1.00
33903;DHT22;20194;50.950;5.346;2023-05-17T11:39:21;19.70;99.90
33903;DHT22;20194;50.950;5.346;2023-05-17T11:41:52;19.80;41.20
33903;DHT22;20194;50.950;5.346;2023-05-17T11:44:32;20.10;99.90
33903;DHT22;20194;50.950;5.346;2023-05-17T11:47:05;20.00;55.00
33903;DHT22;20194;50.950;5.346;2023-05-17T11:49:36;20.00;99.90
33903;DHT22;20194;50.950;5.346;2023-05-17T11:52:06;20.00;99.90
33903;DHT22;20194;50.950;5.346;2023-05-17T11:54:32;20.10;99.90
33903;DHT22;20194;50.950;5.346;2023-05-17T11:56:59;20.10;49.10
33903;DHT22;20194;50.950;5.346;2023-05-17T11:59:26;20.00;73.00
33903;DHT22;20194;50.950;5.346;2023-05-17T12:01:52;19.80;99.90
33903;DHT22;20194;50.950;5.346;2023-05-17T12:04:26;20.00;1.00
33903;DHT22;20194;50.950;5.346;2023-05-17T12:06:55;20.10;17.60
33903;DHT22;20194;50.950;5.346;2023-05-17T12:09:22;19.70;1.00
33903;DHT22;20194;50.950;5.346;2023-05-17T12:11:48;19.30;99.90
33903;DHT22;20194;50.950;5.346;2023-05-17T12:14:15;19.30;99.90
33903;DHT22;20194;50.950;5.346;2023-05-17T12:16:43;19.70;1.00
33903;DHT22;20194;50.950;5.346;2023-05-17T12:19:19;19.70;1.00
33903;DHT22;20194;50.950;5.346;2023-05-17T12:21:46;19.50;1.90
33903;DHT22;20194;50.950;5.346;2023-05-17T12:24:12;19.70;99.90
33903;DHT22;20194;50.950;5.346;2023-05-17T12:26:45;19.80;99.90
33903;DHT22;20194;50.950;5.346;2023-05-17T12:29:12;19.70;37.20
33903;DHT22;20194;50.950;5.346;2023-05-17T12:31:46;19.40;99.90
33903;DHT22;20194;50.950;5.346;2023-05-17T12:34:12;19.60;1.00
33903;DHT22;20194;50.950;5.346;2023-05-17T12:36:38;19.40;99.90
33903;DHT22;20194;50.950;5.346;2023-05-17T12:39:05;19.60;1.00
33903;DHT22;20194;50.950;5.346;2023-05-17T12:41:34;19.80;99.90
33903;DHT22;20194;50.950;5.346;2023-05-17T12:44:01;19.90;99.90
33903;DHT22;20194;50.950;5.346;2023-05-17T12:46:27;20.00;99.90
33903;DHT22;20194;50.950;5.346;2023-05-17T12:48:53;20.20;1.00
33903;DHT22;20194;50.950;5.346;2023-05-17T12:51:21;20.30;99.90
33903;DHT22;20194;50.950;5.346;2023-05-17T12:53:50;20.30;99.90
33903;DHT22;20194;50.950;5.346;2023-05-17T12:56:17;20.20;99.90
33903;DHT22;20194;50.950;5.346;2023-05-17T12:58:46;20.00;1.00
33903;DHT22;20194;50.950;5.346;2023-05-17T13:01:34;19.80;1.00
33903;DHT22;20194;50.950;5.346;2023-05-17T13:04:00;19.90;1.00
33903;DHT22;20194;50.950;5.346;2023-05-17T13:06:26;19.40;99.90
33903;DHT22;20194;50.950;5.346;2023-05-17T13:08:58;19.30;1.00
33903;DHT22;20194;50.950;5.346;2023-05-17T13:11:25;19.40;99.90
33903;DHT22;20194;50.950;5.346;2023-05-17T13:13:51;19.50;99.90
33903;DHT22;20194;50.950;5.346;2023-05-17T13:16:17;19.50;99.90
33903;DHT22;20194;50.950;5.346;2023-05-17T13:18:52;19.80;1.00
33903;DHT22;20194;50.950;5.346;2023-05-17T13:21:20;19.80;1.00
33903;DHT22;20194;50.950;5.346;2023-05-17T13:23:47;19.90;1.00
33903;DHT22;20194;50.950;5.346;2023-05-17T13:26:16;20.00;99.90
33903;DHT22;20194;50.950;5.346;2023-05-17T13:28:42;20.00;1.00
33903;DHT22;20194;50.950;5.346;2023-05-17T13:31:08;20.00;99.90
33903;DHT22;20194;50.950;5.346;2023-05-17T13:33:34;19.80;99.90
33903;DHT22;20194;50.950;5.346;2023-05-17T13:36:00;19.70;1.00
33903;DHT22;20194;50.950;5.346;2023-05-17T13:38:25;19.70;1.00
33903;DHT22;20194;50.950;5.346;2023-05-17T13:40:51;19.60;99.90
33903;DHT22;20194;50.950;5.346;2023-05-17T13:43:17;19.80;4.60
33903;DHT22;20194;50.950;5.346;2023-05-17T13:45:43;19.80;99.90
33903;DHT22;20194;50.950;5.346;2023-05-17T13:48:08;19.80;1.00
33903;DHT22;20194;50.950;5.346;2023-05-17T13:50:34;19.80;23.80
33903;DHT22;20194;50.950;5.346;2023-05-17T13:53:00;19.90;99.90
33903;DHT22;20194;50.950;5.346;2023-05-17T13:55:27;19.80;1.00
33903;DHT22;20194;50.950;5.346;2023-05-17T13:57:53;19.60;1.00
33903;DHT22;20194;50.950;5.346;2023-05-17T14:00:19;19.30;1.00
33903;DHT22;20194;50.950;5.346;2023-05-17T14:02:45;19.10;1.00
33903;DHT22;20194;50.950;5.346;2023-05-17T14:05:11;19.00;1.00
33903;DHT22;20194;50.950;5.346;2023-05-17T14:07:36;18.80;99.90
33903;DHT22;20194;50.950;5.346;2023-05-17T14:10:10;18.80;96.60
33903;DHT22;20194;50.950;5.346;2023-05-17T14:12:37;18.70;19.20
33903;DHT22;20194;50.950;5.346;2023-05-17T14:15:04;19.10;1.00
33903;DHT22;20194;50.950;5.346;2023-05-17T14:17:30;19.10;1.00
33903;DHT22;20194;50.950;5.346;2023-05-17T14:19:57;19.00;2.40
33903;DHT22;20194;50.950;5.346;2023-05-17T14:22:23;19.10;1.00
33903;DHT22;20194;50.950;5.346;2023-05-17T14:24:49;19.10;99.90
33903;DHT22;20194;50.950;5.346;2023-05-17T14:27:14;19.20;99.90
33903;DHT22;20194;50.950;5.346;2023-05-17T14:29:40;19.40;99.90
33903;DHT22;20194;50.950;5.346;2023-05-17T14:32:06;19.50;99.90
33903;DHT22;20194;50.950;5.346;2023-05-17T14:34:32;19.70;99.90
33903;DHT22;20194;50.950;5.346;2023-05-17T14:36:57;19.70;99.90
33903;DHT22;20194;50.950;5.346;2023-05-17T14:39:23;19.60;25.70
33903;DHT22;20194;50.950;5.346;2023-05-17T14:41:49;19.60;1.00
33903;DHT22;20194;50.950;5.346;2023-05-17T14:44:15;19.60;99.90
33903;DHT22;20194;50.950;5.346;2023-05-17T14:46:40;19.40;1.00
33903;DHT22;20194;50.950;5.346;2023-05-17T14:49:06;19.30;1.00
33903;DHT22;20194;50.950;5.346;2023-05-17T14:51:32;19.20;99.90
33903;DHT22;20194;50.950;5.346;2023-05-17T14:53:58;19.00;1.00
33903;DHT22;20194;50.950;5.346;2023-05-17T14:56:24;18.60;99.90
33903;DHT22;20194;50.950;5.346;2023-05-17T14:58:50;18.60;99.90
33903;DHT22;20194;50.950;5.346;2023-05-17T15:01:16;18.70;1.00
33903;DHT22;20194;50.950;5.346;2023-05-17T15:03:42;18.70;1.00
33903;DHT22;20194;50.950;5.346;2023-05-17T15:06:08;18.90;1.00
33903;DHT22;20194;50.950;5.346;2023-05-17T15:08:34;18.90;99.90
33903;DHT22;20194;50.950;5.346;2023-05-17T15:11:00;19.00;1.00
33903;DHT22;20194;50.950;5.346;2023-05-17T15:13:26;19.00;99.90
33903;DHT22;20194;50.950;5.346;2023-05-17T15:15:51;19.10;99.90
33903;DHT22;20194;50.950;5.346;2023-05-17T15:18:18;19.10;99.90
33903;DHT22;20194;50.950;5.346;2023-05-17T15:20:44;19.10;99.90
33903;DHT22;20194;50.950;5.346;2023-05-17T15:23:10;18.90;99.90
33903;DHT22;20194;50.950;5.346;2023-05-17T15:25:36;18.70;99.90
33903;DHT22;20194;50.950;5.346;2023-05-17T15:28:02;18.80;1.00
33903;DHT22;20194;50.950;5.346;2023-05-17T15:30:28;18.80;99.90
33903;DHT22;20194;50.950;5.346;2023-05-17T15:32:55;18.90;99.90
33903;DHT22;20194;50.950;5.346;2023-05-17T15:35:21;19.10;1.00
33903;DHT22;20194;50.950;5.346;2023-05-17T15:37:46;19.00;1.00
33903;DHT22;20194;50.950;5.346;2023-05-17T15:40:12;18.90;99.90
33903;DHT22;20194;50.950;5.346;2023-05-17T15:42:39;18.90;99.90
33903;DHT22;20194;50.950;5.346;2023-05-17T15:45:05;18.90;99.90
33903;DHT22;20194;50.950;5.346;2023-05-17T15:47:31;18.70;1.00
33903;DHT22;20194;50.950;5.346;2023-05-17T15:49:58;18.60;1.00